Time;durP1;ratioP1;P1;durP2;ratioP2;P2;SDS_P1;SDS_P2;PMS_P1;PMS_P2;Temp;Humidity;BMP_temperature;BMP_pressure;BME280_temperature;BME280_humidity;BME280_pressure;Samples;Min_cycle;Max_cycle;Signal;HPM_P1;HPM_P2
2022/01/29 00:01:53;;;;;;;9.05;3.97;;;;;;;;;;4993396;28;20057;-46
2022/01/29 00:04:18;;;;;;;6.68;2.72;;;;;;;;;;4992606;28;20033;-44
2022/01/29 00:06:44;;;;;;;8.75;3.53;;;;;;;;;;4993505;28;20018;-45
2022/01/29 00:09:13;;;;;;;10.65;4.15;;;;;;;;;;4993697;28;20492;-43
2022/01/29 00:11:40;;;;;;;10.05;3.20;;;;;;;;;;4993424;28;20023;-45
2022/01/29 00:14:06;;;;;;;8.43;3.15;;;;;;;;;;4993385;28;20026;-45
2022/01/29 00:16:32;;;;;;;8.52;3.38;;;;;;;;;;4993276;28;20033;-44
2022/01/29 00:18:58;;;;;;;10.20;3.00;;;;;;;;;;4993245;28;20038;-45
2022/01/29 00:21:23;;;;;;;8.80;3.45;;;;;;;;;;4993133;28;20034;-44
2022/01/29 00:23:49;;;;;;;19.50;2.67;;;;;;;;;;4993345;28;20022;-45
2022/01/29 00:26:16;;;;;;;7.20;2.65;;;;;;;;;;4993154;28;20643;-43
2022/01/29 00:28:41;;;;;;;10.57;3.15;;;;;;;;;;4992236;28;20530;-43
2022/01/29 00:31:10;;;;;;;9.93;3.08;;;;;;;;;;4991355;28;20130;-44
2022/01/29 00:33:36;;;;;;;9.23;3.47;;;;;;;;;;4991468;28;20074;-43
2022/01/29 00:36:01;;;;;;;6.10;2.38;;;;;;;;;;4991217;28;20014;-43
2022/01/29 00:38:26;;;;;;;6.43;3.20;;;;;;;;;;4992418;28;20111;-43
2022/01/29 00:40:52;;;;;;;10.35;3.72;;;;;;;;;;4990083;28;20065;-43
2022/01/29 00:43:17;;;;;;;10.77;3.35;;;;;;;;;;4992985;28;20061;-43
2022/01/29 00:45:43;;;;;;;9.13;2.80;;;;;;;;;;4991824;28;20050;-44
2022/01/29 00:48:08;;;;;;;7.68;2.30;;;;;;;;;;4993103;28;20033;-45
2022/01/29 00:50:34;;;;;;;10.60;2.30;;;;;;;;;;4993272;28;20389;-44
2022/01/29 00:52:59;;;;;;;5.28;1.90;;;;;;;;;;4993195;28;20019;-44
2022/01/29 00:55:25;;;;;;;5.28;1.80;;;;;;;;;;4992806;28;20040;-43
2022/01/29 00:57:50;;;;;;;5.50;2.47;;;;;;;;;;4993102;28;20034;-43
2022/01/29 01:00:16;;;;;;;7.85;2.20;;;;;;;;;;4993032;28;20026;-45
2022/01/29 01:02:42;;;;;;;7.65;2.38;;;;;;;;;;4993409;28;20458;-44
2022/01/29 01:05:08;;;;;;;8.18;2.30;;;;;;;;;;4992979;28;20030;-44
2022/01/29 01:07:33;;;;;;;5.75;2.42;;;;;;;;;;4993020;28;20073;-44
2022/01/29 01:09:59;;;;;;;7.47;2.65;;;;;;;;;;4992770;28;20030;-43
2022/01/29 01:12:24;;;;;;;5.32;2.38;;;;;;;;;;4992971;28;20367;-43
2022/01/29 01:14:50;;;;;;;3.50;2.00;;;;;;;;;;4991547;28;20035;-44
2022/01/29 01:17:15;;;;;;;7.22;2.58;;;;;;;;;;4996570;28;20022;-44
2022/01/29 01:19:41;;;;;;;5.78;2.38;;;;;;;;;;4996523;28;20023;-44
2022/01/29 01:22:06;;;;;;;6.13;2.30;;;;;;;;;;4995214;28;20034;-44
2022/01/29 01:24:33;;;;;;;4.60;2.28;;;;;;;;;;4996495;28;20026;-44
2022/01/29 01:26:58;;;;;;;5.47;2.55;;;;;;;;;;4996661;28;20380;-44
2022/01/29 01:29:24;;;;;;;9.52;2.13;;;;;;;;;;4996218;28;20026;-43
2022/01/29 01:31:50;;;;;;;5.47;1.92;;;;;;;;;;4996322;28;20034;-44
2022/01/29 01:34:18;;;;;;;5.20;1.70;;;;;;;;;;4996243;28;20035;-44
2022/01/29 01:36:50;;;;;;;3.15;1.67;;;;;;;;;;4996213;28;20026;-43
2022/01/29 01:39:19;;;;;;;5.43;1.60;;;;;;;;;;4996432;28;20033;-43
2022/01/29 01:41:55;;;;;;;4.03;1.63;;;;;;;;;;4996059;28;20029;-44
2022/01/29 01:44:21;;;;;;;4.57;1.30;;;;;;;;;;4996350;28;20030;-43
2022/01/29 01:46:46;;;;;;;3.72;1.30;;;;;;;;;;4996032;28;20030;-43
2022/01/29 01:49:12;;;;;;;7.85;1.30;;;;;;;;;;4995944;28;20105;-43
2022/01/29 01:51:38;;;;;;;1.42;1.23;;;;;;;;;;4995008;28;20050;-43
2022/01/29 01:54:04;;;;;;;2.42;1.25;;;;;;;;;;4995867;28;20072;-43
2022/01/29 01:56:29;;;;;;;1.98;1.27;;;;;;;;;;4996119;28;20034;-44
2022/01/29 01:58:56;;;;;;;5.93;1.33;;;;;;;;;;4995793;28;20031;-44
2022/01/29 02:01:22;;;;;;;3.95;1.45;;;;;;;;;;4995993;28;20037;-44
2022/01/29 02:03:47;;;;;;;3.20;1.13;;;;;;;;;;4995725;28;20022;-43
2022/01/29 02:06:13;;;;;;;5.93;1.50;;;;;;;;;;4995690;28;20026;-43
2022/01/29 02:08:39;;;;;;;3.50;1.73;;;;;;;;;;4995627;28;20471;-43
2022/01/29 02:11:05;;;;;;;3.55;1.50;;;;;;;;;;4995830;28;20031;-44
2022/01/29 02:13:31;;;;;;;7.03;2.13;;;;;;;;;;4995496;28;20026;-43
2022/01/29 02:15:57;;;;;;;3.58;1.55;;;;;;;;;;4995431;28;20026;-43
2022/01/29 02:18:23;;;;;;;3.42;1.98;;;;;;;;;;4995753;28;20053;-43
2022/01/29 02:20:49;;;;;;;2.55;1.35;;;;;;;;;;4995604;28;20475;-43
2022/01/29 02:23:15;;;;;;;2.83;1.60;;;;;;;;;;4995588;28;20027;-43
2022/01/29 02:25:42;;;;;;;4.63;1.90;;;;;;;;;;4995325;28;20053;-43
2022/01/29 02:28:19;;;;;;;6.13;1.80;;;;;;;;;;4994272;28;20061;-43
2022/01/29 02:30:56;;;;;;;3.15;1.42;;;;;;;;;;4995184;28;20097;-43
2022/01/29 02:33:21;;;;;;;3.38;1.63;;;;;;;;;;4995500;28;20056;-43
2022/01/29 02:35:48;;;;;;;6.82;1.98;;;;;;;;;;4995177;28;20023;-43
2022/01/29 02:38:16;;;;;;;7.82;2.13;;;;;;;;;;4995100;28;20466;-43
2022/01/29 02:41:05;;;;;;;2.65;1.63;;;;;;;;;;4995009;28;20159;-43
2022/01/29 02:43:38;;;;;;;3.10;1.50;;;;;;;;;;4995027;28;20053;-43
2022/01/29 02:46:08;;;;;;;3.85;1.85;;;;;;;;;;4994914;28;20113;-43
2022/01/29 02:48:34;;;;;;;3.77;1.27;;;;;;;;;;4994917;28;20064;-43
2022/01/29 02:50:59;;;;;;;4.82;1.50;;;;;;;;;;4994835;28;20057;-43
2022/01/29 02:53:25;;;;;;;5.88;2.05;;;;;;;;;;4993641;28;20054;-44
2022/01/29 02:55:50;;;;;;;2.20;1.42;;;;;;;;;;4994757;28;20026;-45
2022/01/29 02:58:16;;;;;;;5.15;1.58;;;;;;;;;;4994949;28;20061;-43
2022/01/29 03:00:41;;;;;;;1.67;1.13;;;;;;;;;;4994608;28;20026;-42
2022/01/29 03:03:07;;;;;;;4.00;1.65;;;;;;;;;;4994662;28;20032;-43
2022/01/29 03:05:32;;;;;;;2.60;1.80;;;;;;;;;;4994844;28;20031;-42
2022/01/29 03:07:58;;;;;;;3.60;1.52;;;;;;;;;;4994795;28;20061;-43
2022/01/29 03:10:25;;;;;;;3.58;1.52;;;;;;;;;;4993304;28;20033;-42
2022/01/29 03:12:51;;;;;;;4.00;1.30;;;;;;;;;;4994526;28;20532;-43
2022/01/29 03:15:17;;;;;;;1.25;1.08;;;;;;;;;;4994424;28;20540;-43
2022/01/29 03:17:42;;;;;;;7.60;2.17;;;;;;;;;;4994289;28;20121;-42
2022/01/29 03:20:09;;;;;;;2.20;1.33;;;;;;;;;;4994278;28;20101;-42
2022/01/29 03:22:35;;;;;;;5.90;1.80;;;;;;;;;;4994259;28;20471;-43
2022/01/29 03:25:00;;;;;;;1.80;1.45;;;;;;;;;;4994476;28;20045;-43
2022/01/29 03:27:26;;;;;;;2.83;1.35;;;;;;;;;;4994393;28;20525;-43
2022/01/29 03:29:51;;;;;;;3.47;1.60;;;;;;;;;;4993841;28;20549;-43
2022/01/29 03:32:17;;;;;;;6.53;1.88;;;;;;;;;;4994150;28;20031;-44
2022/01/29 03:34:42;;;;;;;2.78;1.70;;;;;;;;;;4994034;28;20490;-43
2022/01/29 03:37:07;;;;;;;5.25;1.90;;;;;;;;;;4994208;28;20030;-42
2022/01/29 03:39:35;;;;;;;2.65;1.60;;;;;;;;;;4993958;28;20073;-42
2022/01/29 03:42:05;;;;;;;3.78;1.77;;;;;;;;;;4993807;28;20030;-42
2022/01/29 03:44:31;;;;;;;6.43;1.97;;;;;;;;;;4993819;28;20042;-42
2022/01/29 03:46:56;;;;;;;2.42;1.85;;;;;;;;;;4993714;28;20264;-42
2022/01/29 03:49:21;;;;;;;3.08;1.90;;;;;;;;;;4994001;28;20101;-42
2022/01/29 03:51:47;;;;;;;5.78;2.15;;;;;;;;;;4993590;28;20058;-42
2022/01/29 03:54:12;;;;;;;4.28;1.92;;;;;;;;;;4993683;28;20019;-42
2022/01/29 03:56:38;;;;;;;4.75;1.83;;;;;;;;;;4993643;28;20496;-42
2022/01/29 03:59:04;;;;;;;4.50;1.80;;;;;;;;;;4993591;28;20029;-42
2022/01/29 04:01:29;;;;;;;5.35;1.75;;;;;;;;;;4993737;28;20030;-42
2022/01/29 04:03:55;;;;;;;3.35;1.70;;;;;;;;;;4993563;28;20356;-42
2022/01/29 04:06:21;;;;;;;8.02;2.30;;;;;;;;;;4993467;28;20026;-43
2022/01/29 04:08:46;;;;;;;4.20;2.10;;;;;;;;;;4993456;28;20072;-42
2022/01/29 04:11:14;;;;;;;5.60;1.80;;;;;;;;;;4993352;28;20038;-42
2022/01/29 04:13:45;;;;;;;2.63;1.85;;;;;;;;;;4993651;28;20101;-42
2022/01/29 04:16:12;;;;;;;4.60;2.17;;;;;;;;;;4993583;28;20030;-42
2022/01/29 04:18:38;;;;;;;3.08;2.03;;;;;;;;;;4993568;28;20146;-42
2022/01/29 04:21:04;;;;;;;4.57;1.80;;;;;;;;;;4993467;28;20448;-42
2022/01/29 04:23:30;;;;;;;6.75;1.63;;;;;;;;;;4993486;28;20034;-43
2022/01/29 04:25:55;;;;;;;3.67;1.70;;;;;;;;;;4993496;28;20033;-42
2022/01/29 04:28:25;;;;;;;3.63;1.80;;;;;;;;;;4993198;28;20057;-44
2022/01/29 04:30:57;;;;;;;6.93;2.47;;;;;;;;;;4993065;28;20046;-42
2022/01/29 04:35:48;;;;;;;5.63;1.90;;;;;;;;;;4993420;28;20100;-44
2022/01/29 04:38:14;;;;;;;7.93;2.13;;;;;;;;;;4993079;28;20027;-43
2022/01/29 04:40:39;;;;;;;8.40;2.58;;;;;;;;;;4993115;28;20030;-42
2022/01/29 04:43:05;;;;;;;6.57;2.38;;;;;;;;;;4993087;28;20030;-44
2022/01/29 04:45:31;;;;;;;8.40;2.30;;;;;;;;;;4993313;28;20072;-44
2022/01/29 04:47:56;;;;;;;8.85;2.47;;;;;;;;;;4993166;28;20018;-43
2022/01/29 04:50:22;;;;;;;6.53;2.28;;;;;;;;;;4993929;28;20482;-43
2022/01/29 04:52:47;;;;;;;8.20;2.78;;;;;;;;;;4997397;28;20037;-43
2022/01/29 04:55:13;;;;;;;8.30;2.72;;;;;;;;;;4997067;28;20027;-44
2022/01/29 04:57:40;;;;;;;15.05;3.15;;;;;;;;;;4997296;28;20073;-44
2022/01/29 05:00:11;;;;;;;9.82;3.67;;;;;;;;;;4997174;28;20037;-44
2022/01/29 05:02:37;;;;;;;6.32;2.28;;;;;;;;;;4996879;28;20041;-43
2022/01/29 05:05:04;;;;;;;7.20;3.05;;;;;;;;;;4997135;28;20026;-43
2022/01/29 05:07:29;;;;;;;23.45;3.92;;;;;;;;;;4996736;28;20491;-43
2022/01/29 05:09:55;;;;;;;5.32;2.55;;;;;;;;;;4997055;28;20030;-43
2022/01/29 05:12:26;;;;;;;5.40;2.63;;;;;;;;;;4995594;28;20544;-42
2022/01/29 05:15:22;;;;;;;6.60;2.70;;;;;;;;;;4996772;28;20030;-43
2022/01/29 05:28:33;;;;;;;14.25;2.45;;;;;;;;;;4996786;28;20041;-43
2022/01/29 05:30:59;;;;;;;7.00;2.13;;;;;;;;;;4996271;28;20089;-44
2022/01/29 05:33:24;;;;;;;8.07;3.05;;;;;;;;;;4996649;28;20025;-44
2022/01/29 05:35:50;;;;;;;36.35;4.15;;;;;;;;;;4996384;28;20054;-43
2022/01/29 05:38:15;;;;;;;8.93;2.63;;;;;;;;;;4996530;28;20032;-43
2022/01/29 05:40:41;;;;;;;8.13;2.63;;;;;;;;;;4996303;28;20386;-43
2022/01/29 05:43:06;;;;;;;7.05;2.08;;;;;;;;;;4996540;28;20084;-43
2022/01/29 05:45:32;;;;;;;3.83;2.15;;;;;;;;;;4996437;28;20485;-43
2022/01/29 05:47:57;;;;;;;4.82;1.90;;;;;;;;;;4996145;28;20033;-43
2022/01/29 05:50:22;;;;;;;5.05;1.83;;;;;;;;;;4996417;28;20018;-43
2022/01/29 05:52:48;;;;;;;2.33;1.88;;;;;;;;;;4996072;28;20027;-43
2022/01/29 05:55:13;;;;;;;2.00;1.80;;;;;;;;;;4996228;28;20022;-44
2022/01/29 05:57:39;;;;;;;3.45;1.95;;;;;;;;;;4995756;28;20053;-43
2022/01/29 06:00:05;;;;;;;5.75;2.30;;;;;;;;;;4996118;28;20032;-43
2022/01/29 06:02:31;;;;;;;4.00;2.13;;;;;;;;;;4995735;28;20034;-44
2022/01/29 06:04:56;;;;;;;4.80;2.60;;;;;;;;;;4996047;28;20022;-43
2022/01/29 06:07:21;;;;;;;10.50;3.33;;;;;;;;;;4996013;28;20026;-45
2022/01/29 06:09:48;;;;;;;7.10;3.03;;;;;;;;;;4995812;28;20368;-44
2022/01/29 06:12:14;;;;;;;10.32;4.97;;;;;;;;;;4995719;28;20062;-44
2022/01/29 06:14:39;;;;;;;9.90;3.95;;;;;;;;;;4995679;28;20154;-44
2022/01/29 06:17:05;;;;;;;10.23;3.88;;;;;;;;;;4994366;28;20029;-43
2022/01/29 06:19:30;;;;;;;13.65;4.20;;;;;;;;;;4995523;28;20085;-43
2022/01/29 06:21:56;;;;;;;9.40;3.80;;;;;;;;;;4995775;28;20034;-43
2022/01/29 06:24:22;;;;;;;11.80;3.67;;;;;;;;;;4995499;28;20038;-43
2022/01/29 06:26:47;;;;;;;10.30;5.05;;;;;;;;;;4995434;28;20019;-43
2022/01/29 06:29:13;;;;;;;11.63;4.30;;;;;;;;;;4995361;28;20072;-43
2022/01/29 06:31:38;;;;;;;7.40;3.25;;;;;;;;;;4995126;28;20536;-44
2022/01/29 06:34:04;;;;;;;8.10;3.35;;;;;;;;;;4994443;28;20026;-44
2022/01/29 06:36:29;;;;;;;8.95;3.72;;;;;;;;;;4995312;28;20081;-44
2022/01/29 06:38:55;;;;;;;7.80;4.40;;;;;;;;;;4995226;28;20478;-44
2022/01/29 06:41:20;;;;;;;13.75;5.38;;;;;;;;;;4995346;28;20041;-44
2022/01/29 06:43:45;;;;;;;20.25;7.45;;;;;;;;;;4995150;28;20026;-43
2022/01/29 06:46:11;;;;;;;13.93;5.72;;;;;;;;;;4995362;28;20422;-44
2022/01/29 06:48:36;;;;;;;10.15;5.28;;;;;;;;;;4995273;28;20386;-44
2022/01/29 06:51:02;;;;;;;18.30;7.93;;;;;;;;;;4994920;28;20076;-44
2022/01/29 06:53:27;;;;;;;11.43;6.00;;;;;;;;;;4994884;28;20470;-43
2022/01/29 06:55:53;;;;;;;19.45;7.90;;;;;;;;;;4993592;28;20461;-43
2022/01/29 06:58:18;;;;;;;14.18;5.68;;;;;;;;;;4995222;28;20455;-43
2022/01/29 07:00:44;;;;;;;16.52;6.35;;;;;;;;;;4994990;28;20034;-43
2022/01/29 07:03:09;;;;;;;17.17;7.43;;;;;;;;;;4995007;28;20030;-44
2022/01/29 07:05:35;;;;;;;17.92;6.38;;;;;;;;;;4994944;28;20023;-44
2022/01/29 07:08:00;;;;;;;15.20;7.13;;;;;;;;;;4994663;28;20543;-44
2022/01/29 07:10:26;;;;;;;11.90;5.85;;;;;;;;;;4994655;28;20046;-44
2022/01/29 07:12:51;;;;;;;12.02;5.30;;;;;;;;;;4994273;28;20030;-44
2022/01/29 07:15:17;;;;;;;23.67;9.40;;;;;;;;;;4994501;28;20390;-43
2022/01/29 07:17:42;;;;;;;24.85;10.73;;;;;;;;;;4994526;28;20466;-43
2022/01/29 07:20:09;;;;;;;33.58;15.18;;;;;;;;;;4994367;28;20026;-43
2022/01/29 07:22:34;;;;;;;16.80;6.80;;;;;;;;;;4994385;28;20026;-43
2022/01/29 07:25:00;;;;;;;14.60;6.97;;;;;;;;;;4994362;28;20030;-44
2022/01/29 07:27:26;;;;;;;12.30;6.13;;;;;;;;;;4994225;28;20026;-44
2022/01/29 07:29:51;;;;;;;11.38;4.82;;;;;;;;;;4994075;28;20121;-45
2022/01/29 07:32:17;;;;;;;14.02;5.15;;;;;;;;;;4994184;28;20045;-45
2022/01/29 07:34:42;;;;;;;12.05;6.47;;;;;;;;;;4994197;28;20037;-44
2022/01/29 07:37:08;;;;;;;18.85;7.00;;;;;;;;;;4994098;28;20478;-45
2022/01/29 07:39:33;;;;;;;15.85;6.47;;;;;;;;;;4994064;28;20485;-46
2022/01/29 07:41:59;;;;;;;18.77;8.68;;;;;;;;;;4994263;28;20077;-44
2022/01/29 07:44:25;;;;;;;15.48;7.35;;;;;;;;;;4994282;28;20117;-46
2022/01/29 07:46:51;;;;;;;13.48;7.60;;;;;;;;;;4993821;28;20117;-45
2022/01/29 07:49:16;;;;;;;14.90;6.22;;;;;;;;;;4993826;28;20027;-44
2022/01/29 07:51:42;;;;;;;13.02;6.38;;;;;;;;;;4992604;28;20056;-44
2022/01/29 07:54:08;;;;;;;16.45;7.47;;;;;;;;;;4994041;28;20459;-44
2022/01/29 07:56:34;;;;;;;16.40;8.55;;;;;;;;;;4994037;28;20106;-45
2022/01/29 07:58:59;;;;;;;18.17;9.05;;;;;;;;;;4993670;28;20026;-46
2022/01/29 08:01:25;;;;;;;14.98;8.15;;;;;;;;;;4993678;28;20034;-44
2022/01/29 08:03:52;;;;;;;47.03;9.15;;;;;;;;;;4993878;28;20121;-45
2022/01/29 08:06:19;;;;;;;19.55;9.38;;;;;;;;;;4993895;28;20026;-44
2022/01/29 08:08:44;;;;;;;31.77;8.85;;;;;;;;;;4993890;28;20026;-45
2022/01/29 08:11:11;;;;;;;12.00;5.20;;;;;;;;;;4993827;28;20375;-46
2022/01/29 08:13:37;;;;;;;11.25;5.05;;;;;;;;;;4993771;28;20081;-43
2022/01/29 08:16:03;;;;;;;7.32;3.97;;;;;;;;;;4993413;28;20552;-43
2022/01/29 08:18:29;;;;;;;12.43;5.75;;;;;;;;;;4993737;28;20026;-43
2022/01/29 08:20:54;;;;;;;15.85;6.35;;;;;;;;;;4993329;28;20026;-43
2022/01/29 08:23:20;;;;;;;17.35;6.05;;;;;;;;;;4993721;28;20034;-43
2022/01/29 08:25:45;;;;;;;12.70;6.15;;;;;;;;;;4992525;28;20100;-43
2022/01/29 08:28:11;;;;;;;14.93;6.60;;;;;;;;;;4992164;28;20117;-44
2022/01/29 08:30:37;;;;;;;10.68;5.45;;;;;;;;;;4991283;28;20050;-44
2022/01/29 08:33:05;;;;;;;12.48;5.30;;;;;;;;;;4991529;28;20061;-44
2022/01/29 08:35:31;;;;;;;13.88;5.35;;;;;;;;;;4992125;28;20034;-43
2022/01/29 08:37:57;;;;;;;14.95;6.47;;;;;;;;;;4993131;28;20493;-44
2022/01/29 08:40:23;;;;;;;13.00;6.32;;;;;;;;;;4992556;28;20027;-43
2022/01/29 08:42:48;;;;;;;12.10;5.82;;;;;;;;;;4993248;28;20073;-43
2022/01/29 08:45:14;;;;;;;13.30;5.80;;;;;;;;;;4993083;28;20378;-44
2022/01/29 08:47:40;;;;;;;21.00;8.32;;;;;;;;;;4993141;28;20022;-45
2022/01/29 08:50:08;;;;;;;18.17;5.97;;;;;;;;;;4992181;28;20030;-44
2022/01/29 08:52:34;;;;;;;11.93;5.60;;;;;;;;;;4992760;28;20026;-42
2022/01/29 08:54:59;;;;;;;11.82;5.72;;;;;;;;;;4993243;28;20030;-43
2022/01/29 08:57:25;;;;;;;9.63;4.70;;;;;;;;;;4993076;28;20022;-43
2022/01/29 08:59:50;;;;;;;28.92;6.97;;;;;;;;;;4992907;28;20406;-43
2022/01/29 09:02:16;;;;;;;21.90;9.57;;;;;;;;;;4993062;28;20109;-43
2022/01/29 09:04:42;;;;;;;13.02;5.82;;;;;;;;;;4992581;28;20355;-42
2022/01/29 09:07:09;;;;;;;14.82;5.43;;;;;;;;;;4992972;28;20419;-44
2022/01/29 09:09:35;;;;;;;8.75;4.70;;;;;;;;;;4993007;28;20031;-43
2022/01/29 09:12:01;;;;;;;10.75;4.38;;;;;;;;;;4992552;28;20264;-42
2022/01/29 09:14:27;;;;;;;10.60;4.32;;;;;;;;;;4999219;28;20026;-43
2022/01/29 09:16:52;;;;;;;8.45;4.53;;;;;;;;;;5001390;28;20037;-44
2022/01/29 09:19:18;;;;;;;14.00;3.67;;;;;;;;;;4998531;28;20037;-42
2022/01/29 09:21:43;;;;;;;8.75;3.42;;;;;;;;;;5000347;28;20044;-43
2022/01/29 09:24:08;;;;;;;10.90;5.60;;;;;;;;;;5008276;28;20392;-43
2022/01/29 09:26:34;;;;;;;7.53;3.92;;;;;;;;;;5012234;28;20030;-42
2022/01/29 09:28:59;;;;;;;12.77;5.07;;;;;;;;;;5012426;28;20026;-46
2022/01/29 09:31:25;;;;;;;10.93;5.32;;;;;;;;;;5011953;28;20133;-43
2022/01/29 09:33:50;;;;;;;10.27;4.30;;;;;;;;;;5012520;28;20064;-43
2022/01/29 09:36:16;;;;;;;15.73;6.18;;;;;;;;;;5013001;28;20096;-44
2022/01/29 09:38:41;;;;;;;11.00;4.75;;;;;;;;;;5015879;28;20465;-48
2022/01/29 09:41:07;;;;;;;12.25;6.13;;;;;;;;;;5015687;28;20041;-43
2022/01/29 09:43:34;;;;;;;11.98;5.45;;;;;;;;;;5016051;28;20030;-42
2022/01/29 09:45:59;;;;;;;12.40;4.70;;;;;;;;;;5016063;28;20105;-43
2022/01/29 09:48:30;;;;;;;12.13;5.57;;;;;;;;;;5015650;28;20423;-45
2022/01/29 09:50:57;;;;;;;11.65;4.93;;;;;;;;;;5014299;28;20033;-43
2022/01/29 09:53:23;;;;;;;11.43;5.13;;;;;;;;;;5013758;28;20115;-46
2022/01/29 09:55:49;;;;;;;10.70;4.85;;;;;;;;;;5014413;28;20057;-46
2022/01/29 09:58:15;;;;;;;13.15;5.03;;;;;;;;;;5014280;28;20030;-45
2022/01/29 10:00:42;;;;;;;14.80;4.60;;;;;;;;;;5014090;28;20034;-46
2022/01/29 10:03:10;;;;;;;10.93;4.20;;;;;;;;;;5014041;28;20097;-44
2022/01/29 10:05:38;;;;;;;9.77;5.05;;;;;;;;;;5014069;28;20113;-45
2022/01/29 10:08:04;;;;;;;10.90;4.70;;;;;;;;;;5013674;28;20031;-51
2022/01/29 10:10:38;;;;;;;10.27;4.40;;;;;;;;;;5013974;28;20060;-49
2022/01/29 10:13:21;;;;;;;15.80;6.40;;;;;;;;;;5013350;28;20553;-48
2022/01/29 10:15:47;;;;;;;11.63;4.90;;;;;;;;;;5013839;28;20456;-49
2022/01/29 10:18:22;;;;;;;8.32;4.32;;;;;;;;;;5013992;28;20022;-48
2022/01/29 10:20:48;;;;;;;12.55;4.50;;;;;;;;;;5012837;28;20040;-46
2022/01/29 10:23:14;;;;;;;7.43;3.60;;;;;;;;;;5002035;28;20121;-49
2022/01/29 10:25:43;;;;;;;5.75;3.00;;;;;;;;;;5002279;28;20019;-48
2022/01/29 10:28:12;;;;;;;14.02;4.75;;;;;;;;;;5001696;28;20117;-48
2022/01/29 10:30:50;;;;;;;6.72;2.60;;;;;;;;;;5001537;28;20078;-49
2022/01/29 10:33:21;;;;;;;7.90;2.92;;;;;;;;;;5001411;28;20092;-51
2022/01/29 10:35:53;;;;;;;6.90;3.90;;;;;;;;;;5001304;28;20026;-43
2022/01/29 10:38:27;;;;;;;11.65;3.83;;;;;;;;;;4993886;28;20751;-46
2022/01/29 10:41:21;;;;;;;9.43;3.30;;;;;;;;;;4993459;28;20027;-47
2022/01/29 10:44:09;;;;;;;10.80;3.08;;;;;;;;;;4993951;28;20026;-49
2022/01/29 10:46:35;;;;;;;8.80;4.05;;;;;;;;;;4993691;28;20097;-48
2022/01/29 10:49:01;;;;;;;8.00;3.05;;;;;;;;;;4992652;28;20113;-47
2022/01/29 10:51:26;;;;;;;7.18;2.88;;;;;;;;;;4993331;28;20110;-44
2022/01/29 10:53:55;;;;;;;5.10;1.83;;;;;;;;;;4993702;28;20034;-43
2022/01/29 10:56:21;;;;;;;5.60;1.67;;;;;;;;;;4993271;28;20084;-46
2022/01/29 10:58:50;;;;;;;4.68;1.50;;;;;;;;;;4993147;28;20080;-49
2022/01/29 11:01:21;;;;;;;4.30;1.75;;;;;;;;;;4995827;28;20515;-48
2022/01/29 11:03:47;;;;;;;5.78;3.05;;;;;;;;;;5003917;28;20026;-44
2022/01/29 11:06:19;;;;;;;8.70;3.03;;;;;;;;;;5007555;28;20045;-48
2022/01/29 11:08:45;;;;;;;17.65;7.50;;;;;;;;;;5013010;28;20033;-47
2022/01/29 11:11:11;;;;;;;7.18;3.50;;;;;;;;;;5012519;28;20056;-43
2022/01/29 11:13:37;;;;;;;6.97;2.90;;;;;;;;;;5009445;28;20030;-49
2022/01/29 11:16:04;;;;;;;9.75;3.30;;;;;;;;;;5001429;28;20025;-47
2022/01/29 11:18:32;;;;;;;10.27;3.13;;;;;;;;;;5002410;28;20033;-50
2022/01/29 11:20:58;;;;;;;12.82;3.63;;;;;;;;;;5012520;28;20033;-47
2022/01/29 11:23:25;;;;;;;9.90;3.25;;;;;;;;;;5006714;28;20038;-52
2022/01/29 11:25:55;;;;;;;11.65;3.47;;;;;;;;;;5001876;28;20084;-45
2022/01/29 11:28:28;;;;;;;5.40;2.25;;;;;;;;;;5002093;28;20400;-44
2022/01/29 11:31:15;;;;;;;7.60;2.92;;;;;;;;;;4999041;28;20125;-47
2022/01/29 11:33:59;;;;;;;8.43;2.85;;;;;;;;;;5008109;28;20041;-49
2022/01/29 11:37:06;;;;;;;7.28;2.30;;;;;;;;;;5012291;28;20026;-52
2022/01/29 11:39:34;;;;;;;8.23;2.80;;;;;;;;;;4996893;28;20050;-47
2022/01/29 11:42:15;;;;;;;8.02;2.42;;;;;;;;;;4999904;28;20029;-46
2022/01/29 11:44:42;;;;;;;8.73;2.70;;;;;;;;;;5002220;28;20101;-45
2022/01/29 11:47:24;;;;;;;7.97;2.67;;;;;;;;;;5002290;28;20029;-44
2022/01/29 11:49:51;;;;;;;5.63;2.67;;;;;;;;;;5002881;28;20038;-46
2022/01/29 11:52:24;;;;;;;7.85;2.60;;;;;;;;;;4999511;28;20034;-49
2022/01/29 11:55:05;;;;;;;9.70;3.10;;;;;;;;;;5000804;28;20026;-48
2022/01/29 11:57:30;;;;;;;7.03;3.00;;;;;;;;;;5001644;28;20030;-48
2022/01/29 12:00:36;;;;;;;5.70;2.42;;;;;;;;;;5001781;28;20430;-50
2022/01/29 12:03:01;;;;;;;7.03;2.47;;;;;;;;;;5002050;28;20026;-49
2022/01/29 12:05:30;;;;;;;11.73;3.58;;;;;;;;;;5001373;28;20500;-45
2022/01/29 12:08:17;;;;;;;8.00;2.97;;;;;;;;;;4995783;28;20085;-43
2022/01/29 12:10:52;;;;;;;10.95;3.00;;;;;;;;;;4997275;28;20482;-46
2022/01/29 12:13:18;;;;;;;7.55;2.63;;;;;;;;;;5011223;28;20035;-43
2022/01/29 12:15:44;;;;;;;7.65;3.08;;;;;;;;;;5010654;28;20032;-49
2022/01/29 12:18:27;;;;;;;9.07;2.83;;;;;;;;;;5001119;28;20053;-45
2022/01/29 12:20:53;;;;;;;11.98;3.00;;;;;;;;;;4994483;28;20062;-45
2022/01/29 12:23:19;;;;;;;7.78;3.22;;;;;;;;;;4991937;28;20042;-45
2022/01/29 12:25:52;;;;;;;9.35;3.20;;;;;;;;;;5007600;28;20030;-48
2022/01/29 12:28:18;;;;;;;9.02;2.85;;;;;;;;;;5011339;28;20124;-43
2022/01/29 12:30:44;;;;;;;8.57;3.20;;;;;;;;;;5006569;28;20129;-47
2022/01/29 12:33:12;;;;;;;11.32;2.97;;;;;;;;;;4994598;28;20037;-50
2022/01/29 12:36:05;;;;;;;7.82;2.80;;;;;;;;;;4996728;28;20725;-51
2022/01/29 12:38:36;;;;;;;11.60;3.08;;;;;;;;;;5009734;28;20528;-47
2022/01/29 12:41:05;;;;;;;10.63;3.20;;;;;;;;;;5011497;28;20029;-45
2022/01/29 12:44:18;;;;;;;12.70;3.72;;;;;;;;;;5011546;28;20026;-46
2022/01/29 12:46:32;;;;;;;8.20;3.25;;;;;;;;;;5010720;28;20486;-50
2022/01/29 12:49:12;;;;;;;8.00;3.20;;;;;;;;;;5011175;28;20045;-49
2022/01/29 12:51:56;;;;;;;10.95;2.92;;;;;;;;;;5010832;28;20026;-47
2022/01/29 12:54:24;;;;;;;12.20;3.30;;;;;;;;;;5010988;28;20163;-44
2022/01/29 12:56:50;;;;;;;11.30;3.10;;;;;;;;;;5004065;28;20109;-47
2022/01/29 12:59:16;;;;;;;8.27;3.08;;;;;;;;;;5006881;28;20121;-47
2022/01/29 13:01:43;;;;;;;12.00;3.00;;;;;;;;;;5007682;28;20048;-50
2022/01/29 13:04:17;;;;;;;6.20;2.90;;;;;;;;;;5006095;28;20048;-51
2022/01/29 13:06:43;;;;;;;10.77;3.53;;;;;;;;;;4991288;28;20036;-46
2022/01/29 13:09:21;;;;;;;8.73;3.40;;;;;;;;;;4991351;28;20417;-49
2022/01/29 13:11:49;;;;;;;9.18;3.17;;;;;;;;;;4993103;28;20026;-47
2022/01/29 13:14:19;;;;;;;5.70;3.35;;;;;;;;;;4995105;28;20180;-45
2022/01/29 13:16:47;;;;;;;13.45;3.33;;;;;;;;;;4995188;28;20037;-47
2022/01/29 13:19:14;;;;;;;11.45;3.90;;;;;;;;;;4995388;28;20073;-47
2022/01/29 13:21:40;;;;;;;7.70;2.95;;;;;;;;;;4995038;28;20075;-48
2022/01/29 13:24:24;;;;;;;11.18;3.15;;;;;;;;;;4995084;28;20814;-45
2022/01/29 13:27:11;;;;;;;15.80;4.57;;;;;;;;;;4995238;28;20052;-49
2022/01/29 13:29:48;;;;;;;7.95;2.95;;;;;;;;;;4994547;28;20487;-46
2022/01/29 13:32:38;;;;;;;11.10;3.03;;;;;;;;;;4995074;28;20050;-49
2022/01/29 13:35:26;;;;;;;10.95;4.03;;;;;;;;;;4994647;28;20030;-45
2022/01/29 13:38:10;;;;;;;12.10;4.40;;;;;;;;;;4999385;28;20494;-49
2022/01/29 13:40:41;;;;;;;14.93;3.85;;;;;;;;;;5014253;28;20038;-46
2022/01/29 13:43:09;;;;;;;10.02;3.90;;;;;;;;;;5013735;28;20026;-47
2022/01/29 13:45:50;;;;;;;11.02;3.20;;;;;;;;;;5002486;28;20497;-47
2022/01/29 13:48:16;;;;;;;9.15;3.10;;;;;;;;;;5002750;28;20037;-47
2022/01/29 13:50:54;;;;;;;16.00;2.92;;;;;;;;;;5003007;28;20137;-45
2022/01/29 13:53:24;;;;;;;8.73;2.97;;;;;;;;;;5003227;28;20474;-43
2022/01/29 13:56:11;;;;;;;12.85;3.55;;;;;;;;;;5002289;28;20037;-47
2022/01/29 13:59:08;;;;;;;8.75;2.90;;;;;;;;;;5012786;28;20481;-47
2022/01/29 14:02:01;;;;;;;14.95;3.28;;;;;;;;;;5004454;28;20828;-46
2022/01/29 14:04:38;;;;;;;12.52;3.38;;;;;;;;;;5001284;28;20034;-46
2022/01/29 14:07:07;;;;;;;9.43;3.10;;;;;;;;;;4994261;28;20454;-44
2022/01/29 14:09:47;;;;;;;15.27;2.97;;;;;;;;;;4994104;28;20561;-45
2022/01/29 14:12:24;;;;;;;7.90;2.97;;;;;;;;;;4994494;28;20134;-46
2022/01/29 14:14:52;;;;;;;12.82;2.67;;;;;;;;;;4998960;28;20018;-48
2022/01/29 14:17:20;;;;;;;60.88;7.07;;;;;;;;;;5001933;28;20026;-47
2022/01/29 14:19:49;;;;;;;200.95;11.88;;;;;;;;;;5002175;28;20093;-48
2022/01/29 14:22:15;;;;;;;11.48;2.92;;;;;;;;;;5002514;28;20029;-47
2022/01/29 14:24:42;;;;;;;13.02;3.45;;;;;;;;;;5001715;28;20033;-56
2022/01/29 14:27:08;;;;;;;5.80;2.33;;;;;;;;;;5013764;28;20087;-46
2022/01/29 14:29:35;;;;;;;10.02;4.13;;;;;;;;;;5013608;28;20026;-48
2022/01/29 14:32:01;;;;;;;11.68;3.08;;;;;;;;;;5013268;28;20049;-48
2022/01/29 14:34:26;;;;;;;6.15;2.88;;;;;;;;;;5013364;28;20060;-47
2022/01/29 14:36:55;;;;;;;12.73;3.05;;;;;;;;;;5013574;28;20030;-45
2022/01/29 14:39:24;;;;;;;8.38;2.92;;;;;;;;;;5013293;28;20220;-46
2022/01/29 14:41:50;;;;;;;9.90;2.75;;;;;;;;;;5012931;28;20041;-45
2022/01/29 14:44:15;;;;;;;8.43;2.60;;;;;;;;;;5013088;28;20033;-46
2022/01/29 14:46:41;;;;;;;8.27;2.83;;;;;;;;;;5013255;28;20038;-45
2022/01/29 14:49:06;;;;;;;7.95;2.15;;;;;;;;;;5013171;28;20588;-46
2022/01/29 14:51:38;;;;;;;17.70;2.90;;;;;;;;;;5012965;28;20147;-46
2022/01/29 14:54:05;;;;;;;14.05;2.85;;;;;;;;;;5012742;28;20109;-44
2022/01/29 14:56:30;;;;;;;12.32;3.10;;;;;;;;;;5012888;28;20132;-47
2022/01/29 14:58:57;;;;;;;13.57;3.00;;;;;;;;;;5013139;28;20037;-48